sensor_id;sensor_type;location;lat;lon;timestamp;pressure;altitude;pressure_sealevel;temperature;humidity
1736;BME280;865;53.672;10.250;2023-08-31T00:00:49;99670.44;;;13.70;100.00
1736;BME280;865;53.672;10.250;2023-08-31T00:03:17;99665.88;;;13.74;100.00
1736;BME280;865;53.672;10.250;2023-08-31T00:05:45;99675.78;;;13.68;100.00
1736;BME280;865;53.672;10.250;2023-08-31T00:08:12;99663.97;;;13.60;100.00
1736;BME280;865;53.672;10.250;2023-08-31T00:10:39;99658.63;;;13.61;100.00
1736;BME280;865;53.672;10.250;2023-08-31T00:13:06;99664.50;;;13.49;100.00
1736;BME280;865;53.672;10.250;2023-08-31T00:15:34;99665.31;;;13.50;100.00
1736;BME280;865;53.672;10.250;2023-08-31T00:18:03;99656.31;;;13.55;100.00
1736;BME280;865;53.672;10.250;2023-08-31T00:20:32;99647.63;;;13.55;100.00
1736;BME280;865;53.672;10.250;2023-08-31T00:23:00;99647.53;;;13.56;100.00
1736;BME280;865;53.672;10.250;2023-08-31T00:25:27;99638.97;;;13.53;100.00
1736;BME280;865;53.672;10.250;2023-08-31T00:27:56;99641.91;;;13.47;100.00
1736;BME280;865;53.672;10.250;2023-08-31T00:30:23;99641.59;;;13.53;100.00
1736;BME280;865;53.672;10.250;2023-08-31T00:32:55;99644.84;;;13.58;100.00
1736;BME280;865;53.672;10.250;2023-08-31T00:35:22;99654.03;;;13.66;100.00
1736;BME280;865;53.672;10.250;2023-08-31T00:37:49;99656.84;;;13.62;100.00
1736;BME280;865;53.672;10.250;2023-08-31T00:40:16;99658.56;;;13.63;100.00
1736;BME280;865;53.672;10.250;2023-08-31T00:42:42;99660.41;;;13.61;100.00
1736;BME280;865;53.672;10.250;2023-08-31T00:45:09;99667.94;;;13.50;100.00
1736;BME280;865;53.672;10.250;2023-08-31T00:47:36;99661.81;;;13.51;100.00
1736;BME280;865;53.672;10.250;2023-08-31T00:50:03;99671.50;;;13.49;100.00
1736;BME280;865;53.672;10.250;2023-08-31T00:52:29;99666.25;;;13.49;100.00
1736;BME280;865;53.672;10.250;2023-08-31T00:54:56;99667.56;;;13.40;100.00
1736;BME280;865;53.672;10.250;2023-08-31T00:57:23;99667.31;;;13.27;100.00
1736;BME280;865;53.672;10.250;2023-08-31T00:59:52;99662.91;;;13.28;100.00
1736;BME280;865;53.672;10.250;2023-08-31T01:02:24;99665.59;;;13.26;100.00
1736;BME280;865;53.672;10.250;2023-08-31T01:05:21;99667.44;;;13.24;100.00
1736;BME280;865;53.672;10.250;2023-08-31T01:08:03;99674.19;;;13.30;100.00
1736;BME280;865;53.672;10.250;2023-08-31T01:10:58;99677.69;;;13.29;100.00
1736;BME280;865;53.672;10.250;2023-08-31T01:13:30;99681.38;;;13.25;100.00
1736;BME280;865;53.672;10.250;2023-08-31T01:16:00;99684.97;;;13.22;100.00
1736;BME280;865;53.672;10.250;2023-08-31T01:18:30;99686.19;;;13.34;100.00
1736;BME280;865;53.672;10.250;2023-08-31T01:21:12;99685.25;;;13.35;100.00
1736;BME280;865;53.672;10.250;2023-08-31T01:23:55;99691.63;;;13.29;100.00
1736;BME280;865;53.672;10.250;2023-08-31T01:26:23;99697.91;;;13.27;100.00
1736;BME280;865;53.672;10.250;2023-08-31T01:28:51;99708.44;;;13.25;100.00
1736;BME280;865;53.672;10.250;2023-08-31T01:31:18;99699.06;;;13.19;100.00
1736;BME280;865;53.672;10.250;2023-08-31T01:33:45;99703.66;;;13.14;100.00
1736;BME280;865;53.672;10.250;2023-08-31T01:36:27;99698.28;;;13.17;100.00
1736;BME280;865;53.672;10.250;2023-08-31T01:39:06;99701.63;;;13.21;100.00
1736;BME280;865;53.672;10.250;2023-08-31T01:41:37;99704.53;;;13.15;100.00
1736;BME280;865;53.672;10.250;2023-08-31T01:44:05;99708.78;;;12.98;100.00
1736;BME280;865;53.672;10.250;2023-08-31T01:46:35;99709.53;;;12.82;100.00
1736;BME280;865;53.672;10.250;2023-08-31T01:49:04;99709.34;;;12.86;100.00
1736;BME280;865;53.672;10.250;2023-08-31T01:51:31;99711.44;;;12.78;100.00
1736;BME280;865;53.672;10.250;2023-08-31T01:53:57;99710.19;;;12.68;100.00
1736;BME280;865;53.672;10.250;2023-08-31T01:56:25;99707.84;;;12.62;100.00
1736;BME280;865;53.672;10.250;2023-08-31T01:58:51;99707.19;;;12.57;100.00
1736;BME280;865;53.672;10.250;2023-08-31T02:01:18;99697.97;;;12.48;100.00
1736;BME280;865;53.672;10.250;2023-08-31T02:03:45;99700.91;;;12.40;100.00
1736;BME280;865;53.672;10.250;2023-08-31T02:06:11;99697.59;;;12.37;100.00
1736;BME280;865;53.672;10.250;2023-08-31T02:08:38;99699.09;;;12.42;100.00
1736;BME280;865;53.672;10.250;2023-08-31T02:11:04;99694.97;;;12.37;100.00
1736;BME280;865;53.672;10.250;2023-08-31T02:13:31;99693.03;;;12.42;100.00
1736;BME280;865;53.672;10.250;2023-08-31T02:15:57;99685.81;;;12.47;100.00
1736;BME280;865;53.672;10.250;2023-08-31T02:18:24;99689.34;;;12.46;100.00
1736;BME280;865;53.672;10.250;2023-08-31T02:20:52;99702.63;;;12.41;100.00
1736;BME280;865;53.672;10.250;2023-08-31T02:23:19;99701.06;;;12.37;100.00
1736;BME280;865;53.672;10.250;2023-08-31T02:25:46;99711.88;;;12.29;100.00
1736;BME280;865;53.672;10.250;2023-08-31T02:28:12;99710.94;;;12.30;100.00
1736;BME280;865;53.672;10.250;2023-08-31T02:30:38;99713.91;;;12.23;100.00
1736;BME280;865;53.672;10.250;2023-08-31T02:33:05;99715.00;;;12.17;100.00
1736;BME280;865;53.672;10.250;2023-08-31T02:35:32;99713.44;;;12.13;100.00
1736;BME280;865;53.672;10.250;2023-08-31T02:37:59;99715.47;;;12.06;100.00
1736;BME280;865;53.672;10.250;2023-08-31T02:40:25;99715.66;;;12.02;100.00
1736;BME280;865;53.672;10.250;2023-08-31T02:42:52;99712.00;;;12.06;100.00
1736;BME280;865;53.672;10.250;2023-08-31T02:45:18;99717.63;;;11.97;100.00
1736;BME280;865;53.672;10.250;2023-08-31T02:47:45;99718.53;;;11.96;100.00
1736;BME280;865;53.672;10.250;2023-08-31T02:50:12;99711.81;;;11.90;100.00
1736;BME280;865;53.672;10.250;2023-08-31T02:52:39;99709.97;;;11.92;100.00
1736;BME280;865;53.672;10.250;2023-08-31T02:55:06;99714.47;;;11.89;100.00
1736;BME280;865;53.672;10.250;2023-08-31T02:57:33;99717.88;;;11.91;100.00
1736;BME280;865;53.672;10.250;2023-08-31T02:59:59;99734.03;;;11.78;100.00
1736;BME280;865;53.672;10.250;2023-08-31T03:02:26;99714.28;;;11.71;100.00
1736;BME280;865;53.672;10.250;2023-08-31T03:04:52;99710.91;;;11.69;100.00
1736;BME280;865;53.672;10.250;2023-08-31T03:07:19;99718.47;;;11.75;100.00
1736;BME280;865;53.672;10.250;2023-08-31T03:09:49;99727.97;;;11.78;100.00
1736;BME280;865;53.672;10.250;2023-08-31T03:12:16;99727.88;;;11.79;100.00
1736;BME280;865;53.672;10.250;2023-08-31T03:14:43;99737.53;;;11.77;100.00
1736;BME280;865;53.672;10.250;2023-08-31T03:17:09;99737.53;;;11.77;100.00
1736;BME280;865;53.672;10.250;2023-08-31T03:19:36;99741.25;;;11.72;100.00
1736;BME280;865;53.672;10.250;2023-08-31T03:22:03;99742.59;;;11.60;100.00
1736;BME280;865;53.672;10.250;2023-08-31T03:24:32;99748.50;;;11.65;100.00
1736;BME280;865;53.672;10.250;2023-08-31T03:26:58;99750.22;;;11.66;100.00
1736;BME280;865;53.672;10.250;2023-08-31T03:29:25;99766.78;;;11.65;100.00
1736;BME280;865;53.672;10.250;2023-08-31T03:31:51;99765.38;;;11.56;100.00
1736;BME280;865;53.672;10.250;2023-08-31T03:34:23;99769.75;;;11.56;100.00
1736;BME280;865;53.672;10.250;2023-08-31T03:36:50;99774.38;;;11.49;100.00
1736;BME280;865;53.672;10.250;2023-08-31T03:39:17;99785.66;;;11.50;100.00
1736;BME280;865;53.672;10.250;2023-08-31T03:41:43;99778.13;;;11.42;100.00
1736;BME280;865;53.672;10.250;2023-08-31T03:44:10;99785.19;;;11.40;100.00
1736;BME280;865;53.672;10.250;2023-08-31T03:46:36;99770.25;;;11.44;100.00
1736;BME280;865;53.672;10.250;2023-08-31T03:49:03;99771.66;;;11.52;100.00
1736;BME280;865;53.672;10.250;2023-08-31T03:51:29;99778.03;;;11.45;100.00
1736;BME280;865;53.672;10.250;2023-08-31T03:53:56;99784.91;;;11.24;100.00
1736;BME280;865;53.672;10.250;2023-08-31T03:56:23;99778.47;;;11.33;100.00
1736;BME280;865;53.672;10.250;2023-08-31T03:58:49;99782.13;;;11.29;100.00
1736;BME280;865;53.672;10.250;2023-08-31T04:01:16;99781.75;;;11.16;100.00
1736;BME280;865;53.672;10.250;2023-08-31T04:03:44;99780.72;;;11.20;100.00
1736;BME280;865;53.672;10.250;2023-08-31T04:06:11;99778.41;;;11.12;100.00
1736;BME280;865;53.672;10.250;2023-08-31T04:08:38;99780.56;;;11.25;100.00
1736;BME280;865;53.672;10.250;2023-08-31T04:11:04;99789.72;;;11.35;100.00
1736;BME280;865;53.672;10.250;2023-08-31T04:13:31;99791.75;;;11.27;100.00
1736;BME280;865;53.672;10.250;2023-08-31T04:15:57;99792.66;;;11.04;100.00
1736;BME280;865;53.672;10.250;2023-08-31T04:18:24;99801.38;;;11.03;100.00
1736;BME280;865;53.672;10.250;2023-08-31T04:20:52;99787.19;;;11.10;100.00
1736;BME280;865;53.672;10.250;2023-08-31T04:23:19;99794.25;;;11.06;100.00
1736;BME280;865;53.672;10.250;2023-08-31T04:25:46;99795.38;;;11.01;100.00
1736;BME280;865;53.672;10.250;2023-08-31T04:28:14;99796.25;;;11.00;100.00
1736;BME280;865;53.672;10.250;2023-08-31T04:30:40;99796.25;;;11.00;100.00
1736;BME280;865;53.672;10.250;2023-08-31T04:33:07;99796.38;;;10.97;100.00
1736;BME280;865;53.672;10.250;2023-08-31T04:35:34;99803.72;;;10.85;100.00
1736;BME280;865;53.672;10.250;2023-08-31T04:38:00;99809.88;;;10.84;100.00
1736;BME280;865;53.672;10.250;2023-08-31T04:40:28;99808.28;;;10.80;100.00
1736;BME280;865;53.672;10.250;2023-08-31T04:42:57;99809.16;;;10.79;100.00
1736;BME280;865;53.672;10.250;2023-08-31T04:45:23;99805.44;;;10.86;100.00
1736;BME280;865;53.672;10.250;2023-08-31T04:47:50;99808.00;;;10.88;100.00
1736;BME280;865;53.672;10.250;2023-08-31T04:50:17;99820.25;;;10.86;100.00
1736;BME280;865;53.672;10.250;2023-08-31T04:52:44;99821.88;;;10.88;100.00
1736;BME280;865;53.672;10.250;2023-08-31T04:55:12;99817.56;;;10.87;100.00
1736;BME280;865;53.672;10.250;2023-08-31T04:57:40;99830.50;;;10.90;100.00
1736;BME280;865;53.672;10.250;2023-08-31T05:00:06;99838.66;;;10.81;100.00
1736;BME280;865;53.672;10.250;2023-08-31T05:02:37;99843.88;;;10.81;100.00
1736;BME280;865;53.672;10.250;2023-08-31T05:05:04;99842.81;;;10.87;100.00
1736;BME280;865;53.672;10.250;2023-08-31T05:07:31;99841.13;;;10.86;100.00
1736;BME280;865;53.672;10.250;2023-08-31T05:09:58;99846.97;;;10.92;100.00
1736;BME280;865;53.672;10.250;2023-08-31T05:12:24;99856.38;;;10.97;100.00
1736;BME280;865;53.672;10.250;2023-08-31T05:14:51;99854.59;;;10.99;100.00
1736;BME280;865;53.672;10.250;2023-08-31T05:17:17;99861.81;;;10.90;100.00
1736;BME280;865;53.672;10.250;2023-08-31T05:19:44;99864.31;;;10.93;100.00
1736;BME280;865;53.672;10.250;2023-08-31T05:22:10;99865.13;;;10.95;100.00
1736;BME280;865;53.672;10.250;2023-08-31T05:24:37;99868.03;;;11.11;100.00
1736;BME280;865;53.672;10.250;2023-08-31T05:27:04;99862.88;;;11.10;100.00
1736;BME280;865;53.672;10.250;2023-08-31T05:29:30;99867.94;;;11.14;100.00
1736;BME280;865;53.672;10.250;2023-08-31T05:31:57;99879.06;;;11.20;100.00
1736;BME280;865;53.672;10.250;2023-08-31T05:34:24;99889.97;;;11.31;100.00
1736;BME280;865;53.672;10.250;2023-08-31T05:36:51;99886.41;;;11.33;100.00
1736;BME280;865;53.672;10.250;2023-08-31T05:39:18;99901.03;;;11.37;100.00
1736;BME280;865;53.672;10.250;2023-08-31T05:41:44;99901.78;;;11.41;100.00
1736;BME280;865;53.672;10.250;2023-08-31T05:44:11;99899.63;;;11.52;100.00
1736;BME280;865;53.672;10.250;2023-08-31T05:46:37;99903.53;;;11.64;100.00
1736;BME280;865;53.672;10.250;2023-08-31T05:49:05;99900.84;;;11.66;100.00
1736;BME280;865;53.672;10.250;2023-08-31T05:51:33;99910.44;;;11.65;100.00
1736;BME280;865;53.672;10.250;2023-08-31T05:54:00;99913.06;;;11.65;100.00
1736;BME280;865;53.672;10.250;2023-08-31T05:56:27;99918.28;;;11.65;100.00
1736;BME280;865;53.672;10.250;2023-08-31T05:58:53;99917.31;;;11.68;100.00
1736;BME280;865;53.672;10.250;2023-08-31T06:01:21;99927.91;;;11.64;100.00
1736;BME280;865;53.672;10.250;2023-08-31T06:03:51;99930.88;;;11.77;100.00
1736;BME280;865;53.672;10.250;2023-08-31T06:06:18;99933.03;;;11.91;100.00
1736;BME280;865;53.672;10.250;2023-08-31T06:08:44;99936.75;;;11.84;100.00
1736;BME280;865;53.672;10.250;2023-08-31T06:11:11;99942.97;;;12.05;100.00
1736;BME280;865;53.672;10.250;2023-08-31T06:13:40;99947.09;;;12.11;100.00
1736;BME280;865;53.672;10.250;2023-08-31T06:16:06;99949.31;;;11.98;100.00
1736;BME280;865;53.672;10.250;2023-08-31T06:18:33;99962.94;;;12.06;100.00
1736;BME280;865;53.672;10.250;2023-08-31T06:21:00;99970.44;;;12.15;100.00
1736;BME280;865;53.672;10.250;2023-08-31T06:23:27;99966.25;;;12.33;100.00
1736;BME280;865;53.672;10.250;2023-08-31T06:25:53;99976.00;;;12.29;100.00
1736;BME280;865;53.672;10.250;2023-08-31T06:28:19;99984.16;;;12.44;100.00
1736;BME280;865;53.672;10.250;2023-08-31T06:30:46;100011.88;;;12.48;100.00
1736;BME280;865;53.672;10.250;2023-08-31T06:33:16;100011.63;;;12.32;100.00
1736;BME280;865;53.672;10.250;2023-08-31T06:35:46;100013.81;;;12.43;100.00
1736;BME280;865;53.672;10.250;2023-08-31T06:38:14;100019.91;;;12.43;100.00
1736;BME280;865;53.672;10.250;2023-08-31T06:40:44;100025.91;;;12.45;100.00
1736;BME280;865;53.672;10.250;2023-08-31T06:43:10;100031.22;;;12.44;100.00
1736;BME280;865;53.672;10.250;2023-08-31T06:45:37;100032.56;;;12.54;100.00
1736;BME280;865;53.672;10.250;2023-08-31T06:48:04;100023.97;;;12.72;100.00
1736;BME280;865;53.672;10.250;2023-08-31T06:50:33;100032.69;;;12.73;100.00
1736;BME280;865;53.672;10.250;2023-08-31T06:53:00;100041.53;;;12.91;100.00
1736;BME280;865;53.672;10.250;2023-08-31T06:55:26;100052.03;;;12.91;100.00
1736;BME280;865;53.672;10.250;2023-08-31T06:57:53;100048.84;;;13.05;100.00
1736;BME280;865;53.672;10.250;2023-08-31T07:00:22;100052.28;;;13.07;100.00
1736;BME280;865;53.672;10.250;2023-08-31T07:02:48;100058.84;;;12.95;100.00
1736;BME280;865;53.672;10.250;2023-08-31T07:05:15;100066.25;;;13.06;100.00
1736;BME280;865;53.672;10.250;2023-08-31T07:07:41;100082.47;;;13.15;100.00
1736;BME280;865;53.672;10.250;2023-08-31T07:10:08;100076.34;;;13.37;100.00
1736;BME280;865;53.672;10.250;2023-08-31T07:12:34;100087.69;;;13.15;100.00
1736;BME280;865;53.672;10.250;2023-08-31T07:15:01;100098.41;;;13.31;100.00
1736;BME280;865;53.672;10.250;2023-08-31T07:17:29;100107.84;;;13.35;100.00
1736;BME280;865;53.672;10.250;2023-08-31T07:19:56;100091.94;;;13.40;100.00
1736;BME280;865;53.672;10.250;2023-08-31T07:22:22;100117.59;;;13.54;100.00
1736;BME280;865;53.672;10.250;2023-08-31T07:24:49;100116.66;;;13.55;100.00
1736;BME280;865;53.672;10.250;2023-08-31T07:27:16;100123.34;;;13.41;100.00
1736;BME280;865;53.672;10.250;2023-08-31T07:29:42;100130.28;;;13.42;100.00
1736;BME280;865;53.672;10.250;2023-08-31T07:32:09;100142.78;;;13.56;100.00
1736;BME280;865;53.672;10.250;2023-08-31T07:34:36;100152.38;;;13.78;100.00
1736;BME280;865;53.672;10.250;2023-08-31T07:37:03;100156.03;;;13.74;100.00
1736;BME280;865;53.672;10.250;2023-08-31T07:39:30;100160.50;;;13.72;100.00
1736;BME280;865;53.672;10.250;2023-08-31T07:41:57;100166.13;;;13.83;100.00
1736;BME280;865;53.672;10.250;2023-08-31T07:44:23;100166.41;;;13.97;100.00
1736;BME280;865;53.672;10.250;2023-08-31T07:46:50;100178.25;;;14.06;100.00
1736;BME280;865;53.672;10.250;2023-08-31T07:49:17;100174.63;;;13.89;100.00
1736;BME280;865;53.672;10.250;2023-08-31T07:51:43;100173.81;;;13.67;100.00
1736;BME280;865;53.672;10.250;2023-08-31T07:54:10;100173.41;;;13.97;100.00
1736;BME280;865;53.672;10.250;2023-08-31T07:56:36;100178.09;;;14.10;100.00
1736;BME280;865;53.672;10.250;2023-08-31T07:59:03;100180.72;;;14.10;100.00
1736;BME280;865;53.672;10.250;2023-08-31T08:01:30;100186.66;;;14.14;100.00
1736;BME280;865;53.672;10.250;2023-08-31T08:03:56;100190.72;;;14.21;100.00
1736;BME280;865;53.672;10.250;2023-08-31T08:06:23;100196.31;;;14.13;100.00
1736;BME280;865;53.672;10.250;2023-08-31T08:08:49;100202.44;;;14.12;100.00
1736;BME280;865;53.672;10.250;2023-08-31T08:11:16;100202.28;;;14.17;100.00
1736;BME280;865;53.672;10.250;2023-08-31T08:13:42;100205.59;;;14.41;100.00
1736;BME280;865;53.672;10.250;2023-08-31T08:16:09;100197.28;;;14.52;100.00
1736;BME280;865;53.672;10.250;2023-08-31T08:18:36;100210.41;;;14.52;100.00
1736;BME280;865;53.672;10.250;2023-08-31T08:21:02;100218.72;;;14.41;100.00
1736;BME280;865;53.672;10.250;2023-08-31T08:23:29;100229.06;;;14.65;100.00
1736;BME280;865;53.672;10.250;2023-08-31T08:25:56;100224.09;;;14.58;100.00
1736;BME280;865;53.672;10.250;2023-08-31T08:28:22;100227.38;;;14.82;100.00
1736;BME280;865;53.672;10.250;2023-08-31T08:30:49;100229.75;;;14.89;100.00
1736;BME280;865;53.672;10.250;2023-08-31T08:33:16;100235.56;;;14.95;100.00
1736;BME280;865;53.672;10.250;2023-08-31T08:35:43;100230.00;;;15.01;100.00
1736;BME280;865;53.672;10.250;2023-08-31T08:38:09;100234.28;;;15.23;100.00
1736;BME280;865;53.672;10.250;2023-08-31T08:40:36;100227.38;;;15.39;100.00
1736;BME280;865;53.672;10.250;2023-08-31T08:43:06;100238.91;;;15.18;100.00
1736;BME280;865;53.672;10.250;2023-08-31T08:45:37;100236.69;;;14.90;100.00
1736;BME280;865;53.672;10.250;2023-08-31T08:48:06;100247.44;;;14.65;100.00
1736;BME280;865;53.672;10.250;2023-08-31T08:50:35;100243.75;;;14.69;100.00
1736;BME280;865;53.672;10.250;2023-08-31T08:53:03;100241.94;;;14.71;100.00
1736;BME280;865;53.672;10.250;2023-08-31T08:55:30;100241.34;;;14.64;100.00
1736;BME280;865;53.672;10.250;2023-08-31T08:57:58;100240.84;;;14.75;100.00
1736;BME280;865;53.672;10.250;2023-08-31T09:00:27;100241.94;;;14.71;100.00
1736;BME280;865;53.672;10.250;2023-08-31T09:02:56;100244.59;;;14.69;100.00
1736;BME280;865;53.672;10.250;2023-08-31T09:05:24;100241.22;;;14.47;100.00
1736;BME280;865;53.672;10.250;2023-08-31T09:08:04;100247.72;;;14.58;100.00
1736;BME280;865;53.672;10.250;2023-08-31T09:10:40;100257.81;;;14.68;100.00
1736;BME280;865;53.672;10.250;2023-08-31T09:13:12;100255.16;;;14.88;100.00
1736;BME280;865;53.672;10.250;2023-08-31T09:15:44;100252.47;;;14.69;100.00
1736;BME280;865;53.672;10.250;2023-08-31T09:20:54;100259.13;;;15.16;100.00
1736;BME280;865;53.672;10.250;2023-08-31T09:23:23;100254.16;;;15.47;100.00
1736;BME280;865;53.672;10.250;2023-08-31T09:25:52;100259.91;;;15.18;100.00
1736;BME280;865;53.672;10.250;2023-08-31T09:28:25;100255.56;;;15.36;100.00
1736;BME280;865;53.672;10.250;2023-08-31T09:31:05;100260.59;;;15.59;100.00
1736;BME280;865;53.672;10.250;2023-08-31T09:33:34;100262.91;;;15.84;100.00
1736;BME280;865;53.672;10.250;2023-08-31T09:36:00;100262.28;;;15.97;100.00
1736;BME280;865;53.672;10.250;2023-08-31T09:38:27;100257.34;;;16.25;100.00
1736;BME280;865;53.672;10.250;2023-08-31T09:41:06;100266.09;;;16.08;100.00
1736;BME280;865;53.672;10.250;2023-08-31T09:43:33;100266.84;;;15.93;100.00
1736;BME280;865;53.672;10.250;2023-08-31T09:46:00;100264.13;;;15.77;100.00
1736;BME280;865;53.672;10.250;2023-08-31T09:48:29;100266.16;;;15.89;100.00
1736;BME280;865;53.672;10.250;2023-08-31T09:50:56;100260.06;;;15.89;100.00
1736;BME280;865;53.672;10.250;2023-08-31T09:53:24;100264.03;;;15.79;100.00
1736;BME280;865;53.672;10.250;2023-08-31T09:55:56;100266.94;;;15.91;100.00
1736;BME280;865;53.672;10.250;2023-08-31T09:58:23;100268.34;;;16.16;100.00
1736;BME280;865;53.672;10.250;2023-08-31T10:00:51;100263.06;;;15.99;100.00
1736;BME280;865;53.672;10.250;2023-08-31T10:03:20;100258.03;;;16.11;100.00
1736;BME280;865;53.672;10.250;2023-08-31T10:05:48;100259.66;;;15.97;100.00
1736;BME280;865;53.672;10.250;2023-08-31T10:08:16;100273.44;;;15.46;100.00
1736;BME280;865;53.672;10.250;2023-08-31T10:10:44;100273.03;;;15.37;100.00
1736;BME280;865;53.672;10.250;2023-08-31T10:13:11;100272.97;;;15.19;100.00
1736;BME280;865;53.672;10.250;2023-08-31T10:15:38;100275.31;;;15.07;100.00
1736;BME280;865;53.672;10.250;2023-08-31T10:18:07;100280.66;;;15.05;100.00
1736;BME280;865;53.672;10.250;2023-08-31T10:20:34;100271.19;;;15.01;100.00
1736;BME280;865;53.672;10.250;2023-08-31T10:23:05;100282.69;;;14.98;100.00
1736;BME280;865;53.672;10.250;2023-08-31T10:28:27;100261.97;;;15.68;100.00
1736;BME280;865;53.672;10.250;2023-08-31T10:31:01;100268.53;;;15.58;100.00
1736;BME280;865;53.672;10.250;2023-08-31T10:33:40;100269.31;;;15.60;100.00
1736;BME280;865;53.672;10.250;2023-08-31T10:36:16;100267.53;;;15.79;100.00
1736;BME280;865;53.672;10.250;2023-08-31T10:38:47;100263.69;;;16.04;100.00
1736;BME280;865;53.672;10.250;2023-08-31T10:41:32;100271.50;;;16.05;100.00
1736;BME280;865;53.672;10.250;2023-08-31T10:44:02;100262.28;;;16.31;100.00
1736;BME280;865;53.672;10.250;2023-08-31T10:46:36;100268.47;;;16.48;100.00
1736;BME280;865;53.672;10.250;2023-08-31T10:51:40;100272.97;;;16.28;100.00
1736;BME280;865;53.672;10.250;2023-08-31T10:54:09;100265.13;;;16.61;100.00
1736;BME280;865;53.672;10.250;2023-08-31T10:59:17;100270.13;;;16.83;100.00
1736;BME280;865;53.672;10.250;2023-08-31T11:01:57;100271.34;;;16.94;100.00
1736;BME280;865;53.672;10.250;2023-08-31T11:04:26;100265.94;;;17.28;100.00
1736;BME280;865;53.672;10.250;2023-08-31T11:07:17;100267.97;;;17.23;100.00
1736;BME280;865;53.672;10.250;2023-08-31T11:09:45;100277.91;;;17.02;100.00
1736;BME280;865;53.672;10.250;2023-08-31T11:12:12;100267.44;;;17.01;100.00
1736;BME280;865;53.672;10.250;2023-08-31T11:14:39;100265.06;;;17.12;100.00
1736;BME280;865;53.672;10.250;2023-08-31T11:17:06;100271.56;;;17.22;100.00
1736;BME280;865;53.672;10.250;2023-08-31T11:19:35;100266.78;;;17.29;100.00
1736;BME280;865;53.672;10.250;2023-08-31T11:22:03;100269.50;;;17.27;100.00
1736;BME280;865;53.672;10.250;2023-08-31T11:24:31;100276.34;;;16.98;100.00
1736;BME280;865;53.672;10.250;2023-08-31T11:26:58;100263.22;;;17.14;100.00
1736;BME280;865;53.672;10.250;2023-08-31T11:29:24;100277.75;;;17.21;100.00
1736;BME280;865;53.672;10.250;2023-08-31T11:31:51;100274.38;;;17.19;100.00
1736;BME280;865;53.672;10.250;2023-08-31T11:34:18;100271.53;;;17.06;100.00
1736;BME280;865;53.672;10.250;2023-08-31T11:36:46;100269.84;;;17.05;100.00
1736;BME280;865;53.672;10.250;2023-08-31T11:39:13;100277.72;;;16.90;100.00
1736;BME280;865;53.672;10.250;2023-08-31T11:41:40;100279.75;;;16.84;100.00
1736;BME280;865;53.672;10.250;2023-08-31T11:44:09;100284.34;;;16.63;100.00
1736;BME280;865;53.672;10.250;2023-08-31T11:46:36;100283.88;;;16.38;100.00
1736;BME280;865;53.672;10.250;2023-08-31T11:49:04;100285.81;;;16.52;100.00
1736;BME280;865;53.672;10.250;2023-08-31T11:51:32;100285.34;;;16.78;100.00
1736;BME280;865;53.672;10.250;2023-08-31T11:54:03;100290.66;;;17.10;100.00
1736;BME280;865;53.672;10.250;2023-08-31T11:56:50;100287.00;;;16.97;100.00
1736;BME280;865;53.672;10.250;2023-08-31T11:59:18;100294.13;;;16.95;100.00
1736;BME280;865;53.672;10.250;2023-08-31T12:01:47;100289.78;;;16.94;100.00
1736;BME280;865;53.672;10.250;2023-08-31T12:04:23;100292.31;;;17.28;100.00
1736;BME280;865;53.672;10.250;2023-08-31T12:06:51;100290.09;;;17.52;100.00
1736;BME280;865;53.672;10.250;2023-08-31T12:09:19;100292.16;;;17.79;100.00
1736;BME280;865;53.672;10.250;2023-08-31T12:11:50;100295.19;;;17.71;100.00
1736;BME280;865;53.672;10.250;2023-08-31T12:14:24;100302.34;;;17.53;100.00
1736;BME280;865;53.672;10.250;2023-08-31T12:16:59;100312.47;;;17.29;100.00
1736;BME280;865;53.672;10.250;2023-08-31T12:19:30;100312.91;;;17.38;100.00
1736;BME280;865;53.672;10.250;2023-08-31T12:21:57;100307.38;;;17.58;100.00
1736;BME280;865;53.672;10.250;2023-08-31T12:24:24;100302.78;;;17.62;100.00
1736;BME280;865;53.672;10.250;2023-08-31T12:26:51;100311.34;;;17.34;100.00
1736;BME280;865;53.672;10.250;2023-08-31T12:29:20;100314.94;;;17.33;100.00
1736;BME280;865;53.672;10.250;2023-08-31T12:31:47;100305.41;;;17.30;100.00
1736;BME280;865;53.672;10.250;2023-08-31T12:34:14;100310.00;;;17.58;100.00
1736;BME280;865;53.672;10.250;2023-08-31T12:36:41;100308.31;;;17.89;100.00
1736;BME280;865;53.672;10.250;2023-08-31T12:39:08;100317.50;;;17.82;100.00
1736;BME280;865;53.672;10.250;2023-08-31T12:41:36;100318.59;;;17.62;100.00
1736;BME280;865;53.672;10.250;2023-08-31T12:44:03;100312.88;;;17.53;100.00
1736;BME280;865;53.672;10.250;2023-08-31T12:46:31;100308.47;;;17.86;100.00
1736;BME280;865;53.672;10.250;2023-08-31T12:49:02;100314.03;;;18.11;100.00
1736;BME280;865;53.672;10.250;2023-08-31T12:51:30;100312.66;;;18.20;100.00
1736;BME280;865;53.672;10.250;2023-08-31T12:53:57;100311.81;;;18.19;100.00
1736;BME280;865;53.672;10.250;2023-08-31T12:56:23;100312.69;;;17.72;100.00
1736;BME280;865;53.672;10.250;2023-08-31T12:58:52;100324.97;;;17.58;100.00
1736;BME280;865;53.672;10.250;2023-08-31T13:01:20;100323.41;;;17.22;100.00
1736;BME280;865;53.672;10.250;2023-08-31T13:03:47;100331.97;;;16.59;100.00
1736;BME280;865;53.672;10.250;2023-08-31T13:06:14;100335.00;;;16.69;100.00
1736;BME280;865;53.672;10.250;2023-08-31T13:08:43;100341.94;;;16.35;100.00
1736;BME280;865;53.672;10.250;2023-08-31T13:11:11;100351.97;;;15.92;100.00
1736;BME280;865;53.672;10.250;2023-08-31T13:13:39;100361.78;;;15.69;100.00
1736;BME280;865;53.672;10.250;2023-08-31T13:16:05;100368.69;;;15.53;100.00
1736;BME280;865;53.672;10.250;2023-08-31T13:18:32;100373.72;;;15.39;100.00
1736;BME280;865;53.672;10.250;2023-08-31T13:21:00;100368.06;;;15.46;100.00